• Join FlightAware (Why Join?)
  • Login
  • US Flag 
06:29PM EST


 

Airport Tracker/Info


-or-


 

Live Flight TrackerFlight Track Log ✈ GJS3707 ✈ 27-May-2013 ✈ KORD - KBOI

Flight Track Log - Related Links

Times and Time Zones

All times are in EDT time to prevent confusion due to time zone crossing. See the GJS3707 flight status page for this flight to view local times or setup timezone preferences in your user account.

Time Position Orientation Groundspeed Altitude Reporting Facility
EDT Latitude Longitude Course Direction KTS MPH feet Rate Location/Type
11:16AM 41.9667 -87.9833 270° West 208 239 2,300  Level Chicago TRACON
11:17AM 41.9667 -88.0500 270° West 246 283 4,300 1,440 Climbing Chicago TRACON
11:18AM 41.9667 -88.1500 270° West 259 298 5,100 960 Climbing Chicago TRACON
11:18AM 41.9625 -88.1672 252° West 245 282 5,600 2,340 Climbing Chicago Center
11:19AM 41.9583 -88.2678 267° West 265 305 8,200 2,340 Climbing Chicago Center
11:20AM 41.9668 -88.6449 270° West  Level FlightAware Approximate
11:20AM 41.9533 -88.3711 266° West 277 319 10,500  Level Chicago Center
11:21AM 41.9667 -88.7938 270° West  Level FlightAware Approximate
11:21AM 41.9772 -88.5036 284° West 321 369 12,500  Level Chicago Center
11:22AM 42.0078 -88.6181 290° West 328 377 14,800 2,040 Climbing Chicago Center
11:23AM 42.0428 -88.7342 292° West 335 386 16,800 1,800 Climbing Chicago Center
11:24AM 42.0622 -88.8611 282° West 352 405 18,500 1,740 Climbing Chicago Center
11:25AM 42.0581 -88.9878 268° West 343 395 20,400 1,620 Climbing Chicago Center
11:26AM 42.0542 -89.1189 268° West 349 402 21,900 1,260 Climbing Chicago Center
11:27AM 42.0506 -89.2547 268° West 361 415 23,100 1,500 Climbing Chicago Center
11:28AM 42.0458 -89.4244 268° West 376 433 25,000 1,440 Climbing Chicago Center
11:29AM 42.0439 -89.5656 269° West 381 438 26,100 1,020 Climbing Chicago Center
11:30AM 42.0397 -89.7114 268° West 392 451 27,100 960 Climbing Chicago Center
11:31AM 42.0378 -89.8631 269° West 404 465 28,100 960 Climbing Chicago Center
11:33AM 42.0497 -90.0172 276° West 405 466 29,100 960 Climbing Chicago Center
11:34AM 42.0603 -90.1678 275° West 407 468 30,100 960 Climbing Chicago Center
11:35AM 42.0692 -90.3219 274° West 413 475 31,100 960 Climbing Chicago Center
11:36AM 42.0792 -90.4722 275° West 409 471 32,100 1,020 Climbing Chicago Center
11:37AM 42.0925 -90.6525 276° West 405 466 33,300 900 Climbing Chicago Center
11:38AM 42.1164 -90.7958 283° West 397 457 34,000 300 Climbing Chicago Center
11:39AM 42.1419 -90.9431 283° West 403 464 34,000  Level Chicago Center
11:40AM 42.1672 -91.0931 283° West 410 472 34,000  Level Chicago Center
11:41AM 42.1919 -91.2428 283° West 411 473 34,000  Level Chicago Center
11:42AM 42.2178 -91.3939 283° West 412 474 34,000  Level Chicago Center
11:43AM 42.2428 -91.5467 283° West 416 479 34,000  Level Chicago Center
11:44AM 42.2725 -91.7269 283° West 412 474 34,000  Level Chicago Center
11:45AM 42.2972 -91.8803 282° West 416 479 34,000  Level Chicago Center
11:46AM 42.3211 -92.0308 282° West 413 475 34,000  Level Chicago Center
11:47AM 42.3456 -92.1814 282° West 412 474 34,000  Level Chicago Center
11:48AM 42.3694 -92.3308 282° West 409 471 34,000  Level Chicago Center
11:49AM 42.3928 -92.4822 282° West 411 473 34,000  Level Chicago Center
11:50AM 42.4158 -92.6319 282° West 409 471 34,000  Level Chicago Center
11:51AM 42.4447 -92.8125 282° West 412 474 34,000  Level Chicago Center
11:52AM 42.4683 -92.9639 282° West 413 475 34,000  Level Chicago Center
11:53AM 42.4906 -93.1150 281° West 411 473 34,000  Level Chicago Center
11:54AM 42.4989 -93.1758 281° West 416 479 34,000  Level Minneapolis Center
11:55AM 42.5269 -93.3564 282° West 412 474 34,000  Level Minneapolis Center
11:56AM 42.5492 -93.5086 281° West 414 476 34,000  Level Minneapolis Center
11:57AM 42.5719 -93.6597 282° West 413 475 34,000  Level Minneapolis Center
11:58AM 42.5933 -93.8117 281° West 413 475 34,000  Level Minneapolis Center
11:59AM 42.6164 -93.9631 282° West 414 476 34,000  Level Minneapolis Center
12:00PM 42.6417 -94.1444 281° West 412 474 34,000  Level Minneapolis Center
12:01PM 42.6619 -94.2972 280° West 413 475 34,000  Level Minneapolis Center
12:02PM 42.6842 -94.4514 281° West 418 481 34,000  Level Minneapolis Center
12:03PM 42.7044 -94.6022 280° West 418 481 34,000  Level Minneapolis Center
12:04PM 42.7242 -94.7542 280° West 419 482 34,000  Level Minneapolis Center
12:05PM 42.7506 -94.9489 281° West 424 488 34,000  Level Minneapolis Center
12:06PM 42.7719 -95.1100 280° West 431 496 34,000  Level Minneapolis Center
12:07PM 42.7931 -95.2719 280° West 434 499 34,000  Level Minneapolis Center
12:08PM 42.8147 -95.4331 280° West 432 497 34,000  Level Minneapolis Center
12:09PM 42.8342 -95.5956 279° West 434 499 34,000  Level Minneapolis Center
12:10PM 42.8558 -95.7564 280° West 433 498 34,000  Level Minneapolis Center
12:11PM 42.8758 -95.9167 280° West 430 495 34,000  Level Minneapolis Center
12:12PM 42.8947 -96.0719 279° West 419 482 34,000  Level Minneapolis Center
12:13PM 42.9183 -96.2603 280° West 418 481 34,000  Level Minneapolis Center
12:14PM 42.9364 -96.4200 279° West 424 488 34,000  Level Minneapolis Center
12:15PM 42.9556 -96.5769 280° West 422 486 34,000  Level Minneapolis Center
12:16PM 42.9739 -96.7356 279° West 424 488 34,000  Level Minneapolis Center
12:17PM 42.9925 -96.8917 279° West 419 482 34,000  Level Minneapolis Center
12:18PM 43.0106 -97.0511 279° West 423 487 34,000  Level Minneapolis Center
12:19PM 43.0278 -97.2067 279° West 417 480 34,000  Level Minneapolis Center
12:21PM 43.0525 -97.4297 279° West 422 486 34,000  Level Minneapolis Center
12:22PM 43.0703 -97.5886 279° West 422 486 34,000  Level Minneapolis Center
12:23PM 43.0883 -97.7506 279° West 428 493 34,000  Level Minneapolis Center
12:24PM 43.1047 -97.9097 278° West 424 488 34,000  Level Minneapolis Center
12:25PM 43.1222 -98.0711 279° West 428 493 34,000 180 Level Minneapolis Center
12:26PM 43.1389 -98.2331 278° West 431 496 34,400 480 Climbing Minneapolis Center
12:27PM 43.1556 -98.3975 278° West 436 502 35,000 660 Climbing Minneapolis Center
12:28PM 43.1758 -98.5944 278° West 437 503 35,800 480 Climbing Minneapolis Center
12:29PM 43.1925 -98.7625 278° West 442 509 36,000 60 Climbing Minneapolis Center
12:30PM 43.2097 -98.9308 278° West 447 514 36,000  Level Minneapolis Center
12:31PM 43.2228 -99.0900 276° West 446 513 36,000  Level Minneapolis Center
12:32PM 43.2419 -99.2919 277° West 446 513 36,000  Level Minneapolis Center
12:33PM 43.2581 -99.4608 278° West 446 513 36,000  Level Minneapolis Center
12:34PM 43.2725 -99.6267 277° West 442 509 36,000  Level Minneapolis Center
12:35PM 43.2881 -99.7875 278° West 432 497 36,000  Level Minneapolis Center
12:36PM 43.3022 -99.9492 277° West 427 491 36,000  Level Minneapolis Center
12:37PM 43.3158 -100.1078 277° West 422 486 36,000  Level Minneapolis Center
12:38PM 43.3300 -100.2678 277° West 421 484 36,000  Level Minneapolis Center
12:39PM 43.3406 -100.3964 276° West 424 488 36,000  Level Denver Center
12:40PM 43.3567 -100.5875 277° West 420 483 36,000  Level Denver Center
12:41PM 43.3683 -100.7453 276° West 415 478 36,000  Level Denver Center
12:42PM 43.3819 -100.9058 277° West 421 484 36,000  Level Denver Center
12:43PM 43.3944 -101.0678 276° West 423 487 36,000  Level Denver Center
12:44PM 43.4061 -101.2286 276° West 422 486 36,000  Level Denver Center
12:45PM 43.4217 -101.4244 276° West 426 490 36,000  Level Denver Center
12:46PM 43.4331 -101.5842 276° West 420 483 36,000  Level Denver Center
12:47PM 43.4483 -101.7775 276° West 422 486 36,000  Level Denver Center
12:48PM 43.4589 -101.9372 275° West 420 483 36,000  Level Denver Center
12:49PM 43.4700 -102.0978 276° West 421 484 36,000  Level Denver Center
12:50PM 43.4819 -102.2633 276° West 419 482 36,000  Level Denver Center
12:52PM 43.4931 -102.4425 275° West 420 483 36,000  Level Denver Center
12:53PM 43.5047 -102.5953 276° West 421 484 36,000  Level Denver Center
12:54PM 43.5131 -102.7478 274° West 419 482 36,000  Level Denver Center
12:55PM 43.5225 -102.9008 275° West 420 483 36,000  Level Denver Center
12:56PM 43.5336 -103.0786 275° West 418 481 36,000  Level Denver Center
12:57PM 43.5428 -103.2314 275° West 420 483 36,000  Level Denver Center
12:58PM 43.5533 -103.4097 275° West 420 483 36,000  Level Denver Center
12:59PM 43.5639 -103.5886 275° West 420 483 36,000  Level Denver Center
01:00PM 43.5717 -103.7406 274° West 419 482 36,000  Level Denver Center
01:01PM 43.5819 -103.9208 275° West 423 487 36,000  Level Denver Center
01:02PM 43.5897 -104.0742 274° West 422 486 36,000  Level Denver Center
01:03PM 43.5992 -104.2533 274° West 421 484 36,000  Level Denver Center
01:04PM 43.6067 -104.4058 274° West 420 483 36,000  Level Denver Center
01:05PM 43.6153 -104.5856 274° West 421 484 36,000  Level Denver Center
01:06PM 43.6222 -104.7397 274° West 422 486 36,000  Level Denver Center
01:07PM 43.6283 -104.8672 274° West 420 483 36,000  Level Denver Center
01:08PM 43.6367 -105.0736 273° West 422 486 36,000  Level Denver Center
01:09PM 43.6447 -105.2511 274° West 418 481 36,000  Level Denver Center
01:10PM 43.6508 -105.4044 273° West 419 482 36,000  Level Denver Center
01:11PM 43.6569 -105.5844 273° West 420 483 36,000  Level Denver Center
01:12PM 43.6625 -105.7364 273° West 418 481 36,000  Level Denver Center
01:13PM 43.6697 -105.9144 273° West 417 480 36,000  Level Denver Center
01:14PM 43.6744 -106.0653 273° West 413 475 36,000  Level Denver Center
01:15PM 43.6772 -106.1408 273° West 412 474 36,000  Level Salt Lake Center
01:16PM 43.6817 -106.2931 272° West 415 478 36,000  Level Salt Lake Center
01:16PM 43.6847 -106.3931 272° West 414 476 36,000  Level Denver Center
01:17PM 43.6903 -106.5694 273° West 413 475 36,000  Level Denver Center
01:18PM 43.6933 -106.7214 272° West 414 476 36,000  Level Denver Center
01:19PM 43.6956 -106.7992 272° West 417 480 36,000  Level Salt Lake Center
01:19PM 43.6986 -106.8881 273° West 418 481 36,000  Level Denver Center
01:20PM 43.7019 -107.0419 272° West 419 482 36,000  Level Denver Center
01:21PM 43.7072 -107.2217 272° West 418 481 36,000  Level Denver Center
01:22PM 43.7069 -107.2750 270° West 420 483 36,000  Level Salt Lake Center
01:23PM 43.7092 -107.4611 271° West 429 494 36,000  Level Salt Lake Center
01:24PM 43.7122 -107.6164 272° West 424 488 36,000  Level Salt Lake Center
01:25PM 43.7161 -107.7719 272° West 422 486 36,000  Level Salt Lake Center
01:26PM 43.7206 -107.9536 272° West 423 487 36,000  Level Salt Lake Center
01:27PM 43.7231 -108.1072 271° West 419 482 36,000  Level Salt Lake Center
01:28PM 43.7258 -108.2856 271° West 416 479 36,000  Level Salt Lake Center
01:29PM 43.7283 -108.4375 271° West 413 475 36,000  Level Salt Lake Center
01:30PM 43.7300 -108.6175 271° West 419 482 36,100  Climbing Salt Lake Center
01:31PM 43.7322 -108.7750 271° West 427 491 36,000 -60 Descending Salt Lake Center
01:32PM 43.7333 -108.9333 271° West 430 495 36,000  Level Salt Lake Center
01:33PM 43.7353 -109.1169 271° West 427 491 36,000  Level Salt Lake Center
01:34PM 43.7358 -109.2708 270° West 420 483 36,000  Level Salt Lake Center
01:35PM 43.7369 -109.4525 271° West 424 488 36,000  Level Salt Lake Center
01:36PM 43.7372 -109.6006 270° West 423 487 36,000  Level Salt Lake Center
01:37PM 43.7372 -109.7831 270° West 424 488 36,100  Climbing Salt Lake Center
01:38PM 43.7372 -109.9375 270° West 422 486 36,000 -60 Descending Salt Lake Center
01:39PM 43.7375 -110.1181 270° West 419 482 36,000  Level Salt Lake Center
01:40PM 43.7378 -110.2708 270° West 415 478 36,000  Level Salt Lake Center
01:41PM 43.7372 -110.4467 270° West 411 473 36,000  Level Salt Lake Center
01:42PM 43.7367 -110.5975 270° West 410 472 36,000  Level Salt Lake Center
01:43PM 43.7367 -110.7472 270° West 408 470 36,000  Level Salt Lake Center
01:45PM 43.7356 -110.9211 270° West 405 466 36,000  Level Salt Lake Center
01:46PM 43.7328 -111.0719 269° West 408 470 36,000  Level Salt Lake Center
01:47PM 43.7308 -111.2450 269° West 403 464 36,000  Level Salt Lake Center
01:48PM 43.7289 -111.3928 269° West 401 461 36,000  Level Salt Lake Center
01:49PM 43.7256 -111.5633 269° West 397 457 36,000  Level Salt Lake Center
01:50PM 43.7247 -111.7106 270° West 398 458 36,000  Level Salt Lake Center
01:51PM 43.7211 -111.8800 268° West 397 457 36,000  Level Salt Lake Center
01:52PM 43.7178 -112.0261 268° West 396 456 36,000  Level Salt Lake Center
01:53PM 43.7161 -112.1733 269° West 398 458 36,000  Level Salt Lake Center
01:54PM 43.7131 -112.3436 269° West 396 456 36,000  Level Salt Lake Center
01:55PM 43.7089 -112.4881 268° West 394 453 36,000  Level Salt Lake Center
01:56PM 43.7047 -112.6575 268° West 395 455 36,000  Level Salt Lake Center
01:57PM 43.7006 -112.8050 268° West 398 458 36,000  Level Salt Lake Center
01:58PM 43.6961 -112.9750 268° West 398 458 36,000  Level Salt Lake Center
01:59PM 43.6925 -113.1219 268° West 399 459 36,000  Level Salt Lake Center
02:00PM 43.6883 -113.2906 268° West 395 455 36,000  Level Salt Lake Center
02:01PM 43.6833 -113.4353 267° West 394 453 36,000  Level Salt Lake Center
02:02PM 43.6828 -113.6108 270° West 413 475 36,000  Level Salt Lake Center
02:03PM 43.6764 -113.7539 267° West 394 453 36,000  Level Salt Lake Center
02:04PM 43.6672 -113.9211 266° West 393 452 36,000  Level Salt Lake Center
02:05PM 43.6622 -114.0644 267° West 390 449 36,000 -1,140 Level Salt Lake Center
02:06PM 43.6567 -114.2342 267° West 395 455 33,700 -2,340 Descending Salt Lake Center
02:07PM 43.6508 -114.3797 267° West 396 456 31,200 -1,800 Descending Salt Lake Center
02:08PM 43.6442 -114.5258 266° West 398 458 30,000 -1,080 Descending Salt Lake Center
02:09PM 43.6369 -114.7014 267° West 408 470 29,000 -540 Descending Salt Lake Center
02:10PM 43.6317 -114.8533 267° West 412 474 29,000 -1,500 Level Salt Lake Center
02:11PM 43.6247 -115.0267 267° West 406 467 26,000 -2,940 Descending Salt Lake Center
02:12PM 43.6178 -115.1678 266° West 390 449 22,900 -3,240 Descending Salt Lake Center
02:13PM 43.6103 -115.3308 266° West 378 435 19,300 -3,420 Descending Salt Lake Center
02:15PM 43.6031 -115.4778 266° West 372 428 15,900 -2,940 Descending Salt Lake Center
02:16PM 43.5964 -115.6078 266° West 355 409 13,300 -1,860 Descending Salt Lake Center
02:17PM 43.5894 -115.7411 266° West 337 388 12,100 -780 Descending Salt Lake Center
02:18PM 43.5925 -115.8600 272° West 294 338 11,700 -1,080 Descending Salt Lake Center
02:19PM 43.6158 -115.9661 287° West 279 321 9,900 -1,800 Descending Salt Lake Center
02:20PM 43.6372 -116.0711 286° West 273 314 8,000 -960 Descending Salt Lake Center
02:21PM 43.6578 -116.1697 286° West 264 304 8,000 -240 Level Salt Lake Center
02:22PM 43.6753 -116.2472 287° West 223 257 7,600 -1,080 Descending Salt Lake Center
02:23PM 43.6653 -116.3169 259° West 206 237 5,900 -1,680 Descending Salt Lake Center